Time;durP1;ratioP1;P1;durP2;ratioP2;P2;SDS_P1;SDS_P2;PMS_P1;PMS_P2;Temp;Humidity;BMP_temperature;BMP_pressure;BME280_temperature;BME280_humidity;BME280_pressure;Samples;Min_cycle;Max_cycle;Signal;HPM_P1;HPM_P2
2021/12/15 00:00:25;;;;;;;669.08;74.82;;;;;;;2.04;100.00;97063.31;1029658;28;20045;-66
2021/12/15 00:00:55;;;;;;;680.60;78.65;;;;;;;2.09;100.00;97066.19;1032584;28;20169;-64
2021/12/15 00:01:26;;;;;;;660.15;80.80;;;;;;;2.07;100.00;97057.78;1030022;28;20021;-64
2021/12/15 00:01:59;;;;;;;641.05;78.35;;;;;;;2.05;100.00;97058.97;1029781;28;20022;-67
2021/12/15 00:02:30;;;;;;;655.05;80.30;;;;;;;2.09;100.00;97066.19;1022075;28;20098;-65
2021/12/15 00:03:00;;;;;;;626.22;78.32;;;;;;;2.07;100.00;97062.16;1029628;28;20716;-63
2021/12/15 00:03:31;;;;;;;661.88;78.00;;;;;;;2.00;100.00;97062.06;1032803;28;20023;-65
2021/12/15 00:04:01;;;;;;;567.40;67.10;;;;;;;2.10;100.00;97061.81;1033828;28;20032;-65
2021/12/15 00:04:32;;;;;;;485.98;67.10;;;;;;;2.09;100.00;97066.19;1028295;28;20539;-66
2021/12/15 00:05:05;;;;;;;634.55;81.22;;;;;;;2.03;100.00;97061.72;1026433;28;20692;-67
2021/12/15 00:05:36;;;;;;;580.13;77.00;;;;;;;2.06;100.00;97063.97;1025891;28;20152;-65
2021/12/15 00:06:17;;;;;;;539.72;71.72;;;;;;;2.09;100.00;97063.63;1025968;28;20287;-66
2021/12/15 00:06:47;;;;;;;603.28;77.93;;;;;;;2.09;100.00;97060.22;1030661;28;20026;-67
2021/12/15 00:07:19;;;;;;;681.80;77.07;;;;;;;2.10;100.00;97070.38;1032018;28;20268;-64
2021/12/15 00:07:52;;;;;;;635.40;80.35;;;;;;;2.07;100.00;97065.56;1032926;28;20026;-66
2021/12/15 00:08:23;;;;;;;677.28;80.80;;;;;;;2.03;100.00;97051.38;1036730;28;21132;-66
2021/12/15 00:08:58;;;;;;;656.45;79.65;;;;;;;2.09;100.00;97062.81;1029370;28;20270;-63
2021/12/15 00:09:29;;;;;;;580.90;71.32;;;;;;;2.07;100.00;97059.59;1025457;28;20015;-64
2021/12/15 00:09:59;;;;;;;616.65;75.70;;;;;;;2.09;100.00;97065.41;1022139;28;20266;-64
2021/12/15 00:10:30;;;;;;;493.23;66.72;;;;;;;2.08;100.00;97064.59;1025963;28;20271;-66
2021/12/15 00:11:00;;;;;;;519.78;72.45;;;;;;;2.08;100.00;97059.41;1025435;28;20069;-64
2021/12/15 00:11:36;;;;;;;545.72;70.82;;;;;;;2.08;100.00;97061.22;1025574;28;20082;-65
2021/12/15 00:12:08;;;;;;;559.40;72.40;;;;;;;2.07;100.00;97060.38;1025516;28;20026;-66
2021/12/15 00:12:38;;;;;;;644.95;74.15;;;;;;;2.06;100.00;97056.19;1026262;28;20321;-65
2021/12/15 00:13:12;;;;;;;661.67;75.32;;;;;;;2.03;100.00;97056.53;1028201;28;20273;-66
2021/12/15 00:13:42;;;;;;;667.22;75.70;;;;;;;2.10;100.00;97067.81;1029393;28;20031;-65
2021/12/15 00:14:16;;;;;;;598.45;76.20;;;;;;;2.06;100.00;97050.22;1021613;29;20300;-65
2021/12/15 00:14:46;;;;;;;705.33;75.50;;;;;;;2.10;100.00;97059.22;1024988;28;20792;-66
2021/12/15 00:15:17;;;;;;;638.88;77.68;;;;;;;2.12;100.00;97060.66;1025116;28;20787;-66
2021/12/15 00:15:48;;;;;;;706.22;79.70;;;;;;;2.16;100.00;97060.31;1021288;28;20097;-65
2021/12/15 00:16:18;;;;;;;575.78;72.03;;;;;;;2.13;100.00;97061.47;1025350;28;20030;-66
2021/12/15 00:16:52;;;;;;;583.22;74.32;;;;;;;2.10;100.00;97061.81;1024075;28;20027;-64
2021/12/15 00:17:23;;;;;;;547.05;66.78;;;;;;;2.09;100.00;97060.22;1022079;28;20660;-65
2021/12/15 00:17:54;;;;;;;480.08;65.65;;;;;;;2.01;100.00;97048.16;1025259;28;20812;-64
2021/12/15 00:18:25;;;;;;;716.85;79.38;;;;;;;2.13;100.00;97064.06;1030061;28;20257;-68
2021/12/15 00:18:55;;;;;;;613.28;71.07;;;;;;;2.10;100.00;97056.66;1020106;29;20514;-67
2021/12/15 00:19:27;;;;;;;622.42;77.30;;;;;;;2.11;100.00;97066.00;1025250;28;20023;-65
2021/12/15 00:19:58;;;;;;;637.42;78.57;;;;;;;2.11;100.00;97069.44;1030855;28;20053;-66
2021/12/15 00:20:29;;;;;;;636.80;77.13;;;;;;;2.15;100.00;97069.06;1021051;29;20271;-65
2021/12/15 00:21:00;;;;;;;638.08;76.38;;;;;;;2.13;100.00;97070.03;1028259;28;20496;-64
2021/12/15 00:21:30;;;;;;;752.75;78.35;;;;;;;2.18;100.00;97073.88;1029498;28;20297;-64
2021/12/15 00:22:01;;;;;;;700.80;79.00;;;;;;;2.13;100.00;97062.28;1033121;28;20020;-65
2021/12/15 00:22:31;;;;;;;529.53;67.30;;;;;;;2.21;100.00;97063.16;1025672;28;20098;-64
2021/12/15 00:23:02;;;;;;;562.60;72.57;;;;;;;2.13;100.00;97066.66;1025580;28;20513;-64
2021/12/15 00:23:33;;;;;;;567.38;66.78;;;;;;;2.18;100.00;97068.69;1021828;28;20031;-67
2021/12/15 00:24:04;;;;;;;532.58;68.32;;;;;;;2.18;100.00;97068.69;1022142;28;20027;-67
2021/12/15 00:24:35;;;;;;;491.02;62.92;;;;;;;2.21;100.00;97060.59;1024869;28;20077;-65
2021/12/15 00:25:06;;;;;;;554.45;71.57;;;;;;;2.15;100.00;97063.88;1024987;28;20336;-65
2021/12/15 00:25:38;;;;;;;580.28;69.85;;;;;;;2.12;100.00;97060.66;1025322;28;20033;-64
2021/12/15 00:26:09;;;;;;;641.85;75.45;;;;;;;2.18;100.00;97066.94;1021491;29;20274;-65
2021/12/15 00:26:40;;;;;;;571.65;71.15;;;;;;;2.18;100.00;97069.53;1027604;28;20258;-66
2021/12/15 00:27:10;;;;;;;530.95;68.38;;;;;;;2.18;100.00;97068.69;1028827;28;20030;-65
2021/12/15 00:27:41;;;;;;;485.60;62.85;;;;;;;2.20;100.00;97069.34;1025660;28;20090;-65
2021/12/15 00:28:12;;;;;;;553.60;70.18;;;;;;;2.16;100.00;97060.31;1021526;28;20027;-64
2021/12/15 00:28:44;;;;;;;557.78;71.60;;;;;;;2.13;100.00;97064.88;1024981;28;20285;-68
2021/12/15 00:29:14;;;;;;;483.58;59.15;;;;;;;2.15;100.00;97063.88;1025641;28;20558;-65
2021/12/15 00:29:48;;;;;;;405.17;59.42;;;;;;;2.19;100.00;97065.16;1021483;28;20302;-64
2021/12/15 00:30:18;;;;;;;475.15;63.47;;;;;;;2.11;100.00;97059.06;1020727;28;20050;-65
2021/12/15 00:30:48;;;;;;;528.22;67.40;;;;;;;2.18;100.00;97068.69;1023816;28;20322;-65
2021/12/15 00:31:19;;;;;;;537.72;67.25;;;;;;;2.18;100.00;97064.34;1029885;28;20543;-64
2021/12/15 00:31:50;;;;;;;520.50;65.47;;;;;;;2.20;100.00;97071.94;1025357;28;20027;-67
2021/12/15 00:32:20;;;;;;;518.58;65.95;;;;;;;2.20;100.00;97072.72;1025502;28;20227;-67
2021/12/15 00:32:52;;;;;;;419.63;58.65;;;;;;;2.15;100.00;97059.53;1025296;28;20765;-65
2021/12/15 00:33:22;;;;;;;559.20;70.28;;;;;;;2.19;100.00;97065.94;1021988;28;20027;-66
2021/12/15 00:33:53;;;;;;;531.50;69.15;;;;;;;2.13;100.00;97062.28;1027048;28;20262;-65
2021/12/15 00:34:23;;;;;;;514.70;62.20;;;;;;;2.22;100.00;97075.16;1025393;28;20130;-64
2021/12/15 00:34:54;;;;;;;522.63;67.82;;;;;;;2.20;100.00;97072.72;1024980;28;20033;-65
2021/12/15 00:35:24;;;;;;;592.63;71.05;;;;;;;2.20;100.00;97071.94;1029520;28;20037;-65
2021/12/15 00:35:55;;;;;;;519.33;65.18;;;;;;;2.16;100.00;97070.69;1026161;28;20027;-64
2021/12/15 00:36:26;;;;;;;560.58;70.60;;;;;;;2.22;100.00;97075.97;1029616;28;20069;-65
2021/12/15 00:36:56;;;;;;;526.67;62.67;;;;;;;2.20;100.00;97071.94;1029317;28;20332;-66
2021/12/15 00:37:27;;;;;;;613.85;72.43;;;;;;;2.24;100.00;97073.97;1023518;28;20126;-65
2021/12/15 00:37:57;;;;;;;593.75;71.20;;;;;;;2.24;100.00;97075.78;1027799;28;20137;-64
2021/12/15 00:38:28;;;;;;;485.60;66.53;;;;;;;2.20;100.00;97072.72;1029534;28;20135;-65
2021/12/15 00:38:59;;;;;;;471.45;60.90;;;;;;;2.25;100.00;97072.22;1035896;28;20060;-65
2021/12/15 00:39:29;;;;;;;554.28;66.03;;;;;;;2.20;100.00;97071.94;1025517;28;20035;-64
2021/12/15 00:40:00;;;;;;;445.48;61.65;;;;;;;2.23;100.00;97082.75;1029318;28;20042;-64
2021/12/15 00:40:30;;;;;;;541.92;63.58;;;;;;;2.15;100.00;97054.34;1025427;28;20100;-65
2021/12/15 00:41:01;;;;;;;443.08;57.67;;;;;;;2.26;100.00;97077.22;1033629;28;20098;-65
2021/12/15 00:41:32;;;;;;;478.13;66.50;;;;;;;2.28;100.00;97077.00;1033570;28;20029;-65
2021/12/15 00:42:02;;;;;;;498.42;67.03;;;;;;;2.27;100.00;97078.00;1029331;28;20331;-67
2021/12/15 00:42:33;;;;;;;548.08;69.07;;;;;;;2.25;100.00;97072.22;1019473;29;20035;-64
2021/12/15 00:43:03;;;;;;;517.35;65.05;;;;;;;2.25;100.00;97070.44;1017907;28;20043;-67
2021/12/15 00:43:34;;;;;;;329.52;49.55;;;;;;;2.27;100.00;97070.25;1025548;28;20029;-65
2021/12/15 00:44:07;;;;;;;305.65;46.28;;;;;;;2.33;100.00;97079.91;1025029;28;20023;-64
2021/12/15 00:44:38;;;;;;;346.65;48.72;;;;;;;2.31;100.00;97074.91;1020887;29;20122;-67
2021/12/15 00:45:09;;;;;;;291.92;43.70;;;;;;;2.24;100.00;97066.22;1021874;28;20275;-65
2021/12/15 00:45:39;;;;;;;254.77;44.22;;;;;;;2.33;100.00;97072.13;1026359;28;20101;-67
2021/12/15 00:46:10;;;;;;;416.63;56.28;;;;;;;2.32;100.00;97075.72;1028965;28;20867;-65
2021/12/15 00:46:41;;;;;;;468.23;63.67;;;;;;;2.35;100.00;97083.13;1025278;28;20023;-65
2021/12/15 00:47:11;;;;;;;458.52;65.57;;;;;;;2.26;100.00;97066.06;1025318;28;20030;-65
2021/12/15 00:47:43;;;;;;;451.80;61.20;;;;;;;2.35;100.00;97076.16;1018891;28;20027;-67
2021/12/15 00:48:14;;;;;;;270.05;46.63;;;;;;;2.36;100.00;97077.75;1021193;29;20038;-64
2021/12/15 00:48:45;;;;;;;252.82;43.70;;;;;;;2.36;100.00;97076.97;1018129;28;20278;-66
2021/12/15 00:49:15;;;;;;;449.48;56.55;;;;;;;2.37;100.00;97068.19;1023224;28;20056;-67
2021/12/15 00:49:46;;;;;;;399.75;59.30;;;;;;;2.38;100.00;97074.97;1029777;28;20030;-66
2021/12/15 00:50:20;;;;;;;427.15;60.40;;;;;;;2.38;100.00;97074.97;1025632;28;20042;-64
2021/12/15 00:50:51;;;;;;;396.60;53.00;;;;;;;2.39;100.00;97076.59;1028392;28;20034;-68
2021/12/15 00:51:22;;;;;;;455.15;60.95;;;;;;;2.39;100.00;97081.78;1025675;28;20258;-66
2021/12/15 00:51:52;;;;;;;476.70;62.35;;;;;;;2.38;100.00;97074.97;1026785;28;20495;-68
2021/12/15 00:52:23;;;;;;;501.35;65.07;;;;;;;2.22;100.00;97054.44;1033500;28;20504;-63
2021/12/15 00:52:53;;;;;;;370.85;51.03;;;;;;;2.36;100.00;97072.56;1031792;28;20071;-66
2021/12/15 00:53:24;;;;;;;429.35;53.58;;;;;;;2.40;100.00;97080.78;1029587;28;20022;-65
2021/12/15 00:53:57;;;;;;;532.08;64.32;;;;;;;2.35;100.00;97072.78;1025602;28;20023;-66
2021/12/15 00:54:28;;;;;;;498.13;65.63;;;;;;;2.39;100.00;97081.78;1024940;28;20026;-65
2021/12/15 00:55:02;;;;;;;382.08;48.47;;;;;;;2.37;100.00;97073.38;1020740;29;20279;-67
2021/12/15 00:55:33;;;;;;;442.13;59.17;;;;;;;2.42;100.00;97076.25;1025731;28;20839;-64
2021/12/15 00:56:03;;;;;;;155.65;33.92;;;;;;;2.38;100.00;97077.56;1026321;28;20274;-65
2021/12/15 00:56:34;;;;;;;272.55;41.30;;;;;;;2.39;100.00;97075.81;1025829;28;20031;-66
2021/12/15 00:57:05;;;;;;;205.57;38.80;;;;;;;2.43;100.00;97077.84;1025594;28;20069;-66
2021/12/15 00:57:35;;;;;;;366.58;48.40;;;;;;;2.44;100.00;97082.03;1021237;29;20106;-66
2021/12/15 00:58:06;;;;;;;390.75;48.10;;;;;;;2.38;100.00;97074.19;1021405;28;20976;-66
2021/12/15 00:58:36;;;;;;;239.75;39.15;;;;;;;2.39;100.00;97081.78;1029325;28;20034;-66
2021/12/15 00:59:08;;;;;;;530.50;61.53;;;;;;;2.37;100.00;97070.78;1033511;28;20022;-66
2021/12/15 00:59:39;;;;;;;435.40;58.92;;;;;;;2.46;100.00;97085.28;1018061;29;20564;-65
2021/12/15 01:00:15;;;;;;;276.63;46.35;;;;;;;2.47;100.00;97078.28;1020058;28;20284;-66
2021/12/15 01:00:51;;;;;;;438.48;57.28;;;;;;;2.47;100.00;97081.69;1027942;28;20038;-67
2021/12/15 01:01:23;;;;;;;393.30;50.83;;;;;;;2.46;100.00;97079.28;1028052;28;20323;-64
2021/12/15 01:01:54;;;;;;;395.70;56.45;;;;;;;2.48;100.00;97083.31;1029330;28;20373;-67
2021/12/15 01:02:24;;;;;;;420.80;51.80;;;;;;;2.48;100.00;97079.91;1029780;28;21230;-68
2021/12/15 01:02:55;;;;;;;372.05;51.55;;;;;;;2.43;100.00;97077.84;1031420;28;20904;-67
2021/12/15 01:03:25;;;;;;;349.10;50.50;;;;;;;2.48;100.00;97083.31;1033677;28;20025;-65
2021/12/15 01:03:56;;;;;;;374.85;49.65;;;;;;;2.43;100.00;97077.84;1029274;28;20030;-66
2021/12/15 01:04:29;;;;;;;335.42;48.75;;;;;;;2.45;100.00;97081.09;1017191;29;20020;-66
2021/12/15 01:05:00;;;;;;;274.42;43.30;;;;;;;2.48;100.00;97080.72;1029204;28;20030;-64
2021/12/15 01:05:34;;;;;;;454.15;58.63;;;;;;;2.49;100.00;97087.50;1025455;28;20282;-66
2021/12/15 01:06:09;;;;;;;434.35;57.85;;;;;;;2.48;100.00;97090.25;1021773;28;20948;-66
2021/12/15 01:06:40;;;;;;;359.27;47.55;;;;;;;2.47;100.00;97079.09;1029228;28;20273;-66
2021/12/15 01:07:12;;;;;;;395.60;49.67;;;;;;;2.46;100.00;97082.69;1029314;28;20700;-66
2021/12/15 01:07:43;;;;;;;480.02;61.03;;;;;;;2.47;100.00;97078.28;1024504;28;20274;-67
2021/12/15 01:08:17;;;;;;;378.75;52.42;;;;;;;2.45;100.00;97081.09;1025004;28;20794;-70
2021/12/15 01:08:54;;;;;;;408.77;50.80;;;;;;;2.42;100.00;97081.44;1026801;28;20049;-65
2021/12/15 01:09:30;;;;;;;419.70;55.05;;;;;;;2.43;100.00;97088.22;1029321;28;20624;-66
2021/12/15 01:10:01;;;;;;;458.30;58.80;;;;;;;2.45;100.00;97086.25;1017344;29;20279;-64
2021/12/15 01:10:46;;;;;;;526.38;67.53;;;;;;;2.42;100.00;97075.44;1021546;29;20827;-66
2021/12/15 01:11:26;;;;;;;249.57;41.00;;;;;;;2.47;100.00;97088.66;1024677;28;20026;-65
2021/12/15 01:20:25;;;;;;;411.60;52.83;;;;;;;2.45;100.00;97094.03;1020773;28;20318;-67
2021/12/15 01:20:56;;;;;;;448.73;56.45;;;;;;;2.45;100.00;97101.81;1026295;28;20269;-64
2021/12/15 01:21:26;;;;;;;401.55;56.17;;;;;;;2.43;100.00;97093.41;1025572;28;20876;-66
2021/12/15 01:21:57;;;;;;;293.95;45.97;;;;;;;2.46;100.00;97103.41;1025891;28;20034;-67
2021/12/15 01:22:33;;;;;;;334.70;50.63;;;;;;;2.45;100.00;97103.56;1022503;28;20465;-65
2021/12/15 01:23:07;;;;;;;323.95;52.10;;;;;;;2.47;100.00;97104.19;1025426;28;20475;-66
2021/12/15 01:23:41;;;;;;;275.50;45.10;;;;;;;2.44;100.00;97102.75;1029208;28;20281;-64
2021/12/15 01:24:11;;;;;;;226.55;40.10;;;;;;;2.34;100.00;97079.72;1026801;28;20258;-65
2021/12/15 01:24:42;;;;;;;397.08;57.08;;;;;;;2.47;100.00;97105.00;1024680;28;20302;-65
2021/12/15 01:25:19;;;;;;;147.52;34.78;;;;;;;2.46;100.00;97100.81;1025661;28;20034;-67
2021/12/15 01:25:54;;;;;;;305.80;50.50;;;;;;;2.41;100.00;97091.94;1028947;28;20034;-65
2021/12/15 01:26:25;;;;;;;454.35;63.92;;;;;;;2.48;100.00;97101.44;1029325;28;20846;-64
2021/12/15 01:26:55;;;;;;;483.13;59.97;;;;;;;2.44;100.00;97095.00;1024784;28;20274;-66
2021/12/15 01:27:26;;;;;;;529.78;67.47;;;;;;;2.45;100.00;97095.78;1025284;28;20113;-67
2021/12/15 01:27:56;;;;;;;507.95;63.45;;;;;;;2.43;100.00;97093.41;1025247;28;20023;-66
2021/12/15 01:28:27;;;;;;;517.10;62.72;;;;;;;2.49;100.00;97102.25;1028814;28;20341;-66
2021/12/15 01:28:57;;;;;;;503.73;65.22;;;;;;;2.47;100.00;97102.41;1025332;28;20026;-68
2021/12/15 01:29:28;;;;;;;509.60;63.05;;;;;;;2.47;100.00;97096.44;1021496;28;20015;-65
2021/12/15 01:29:58;;;;;;;478.33;58.95;;;;;;;2.40;100.00;97087.75;1021446;28;20019;-63
2021/12/15 01:30:31;;;;;;;246.95;41.40;;;;;;;2.39;100.00;97092.16;1021393;29;20042;-67
2021/12/15 01:31:02;;;;;;;398.10;54.95;;;;;;;2.49;100.00;97099.66;1032679;28;20642;-67
2021/12/15 01:31:35;;;;;;;444.52;58.92;;;;;;;2.51;100.00;97108.03;1025184;28;20273;-65
2021/12/15 01:32:06;;;;;;;316.73;46.97;;;;;;;2.49;100.00;97108.22;1024952;28;20277;-67
2021/12/15 01:32:36;;;;;;;301.08;45.05;;;;;;;2.51;100.00;97105.44;1025247;28;20281;-66
2021/12/15 01:33:07;;;;;;;350.70;46.97;;;;;;;2.49;100.00;97108.22;1025592;28;20015;-66
2021/12/15 01:33:38;;;;;;;329.38;44.25;;;;;;;2.50;100.00;97109.03;1029659;28;20081;-66
2021/12/15 01:34:08;;;;;;;371.27;54.10;;;;;;;2.48;100.00;97100.63;1029206;28;20029;-65
2021/12/15 01:34:39;;;;;;;439.50;59.25;;;;;;;2.51;100.00;97108.84;1024780;28;20049;-64
2021/12/15 01:35:09;;;;;;;496.35;65.90;;;;;;;2.43;100.00;97095.19;1019784;28;20026;-66
2021/12/15 01:35:42;;;;;;;357.73;51.90;;;;;;;2.49;100.00;97105.63;1017417;29;20027;-64
2021/12/15 01:36:12;;;;;;;451.23;57.83;;;;;;;2.45;100.00;97112.16;1018152;28;20106;-65
2021/12/15 01:36:43;;;;;;;359.70;49.55;;;;;;;2.42;100.00;97107.34;1022208;28;21044;-65
2021/12/15 01:37:13;;;;;;;446.00;63.25;;;;;;;2.50;100.00;97114.22;1020999;28;20019;-66
2021/12/15 01:37:45;;;;;;;452.27;61.83;;;;;;;2.52;100.00;97110.47;1019424;28;20024;-67
2021/12/15 01:38:18;;;;;;;401.27;56.95;;;;;;;2.51;100.00;97116.63;1025193;28;20027;-66
2021/12/15 01:38:50;;;;;;;322.65;48.63;;;;;;;2.54;100.00;97116.25;1023609;28;20776;-65
2021/12/15 01:39:20;;;;;;;499.02;65.60;;;;;;;2.49;100.00;97118.59;1021579;29;20273;-66
2021/12/15 01:39:54;;;;;;;492.67;65.50;;;;;;;2.49;100.00;97113.41;1022059;28;20266;-67
2021/12/15 01:40:35;;;;;;;250.88;42.30;;;;;;;2.29;100.00;97081.25;1030396;28;20028;-65
2021/12/15 01:41:18;;;;;;;422.10;58.00;;;;;;;2.54;100.00;97118.84;1033356;28;20361;-66
2021/12/15 01:41:49;;;;;;;424.63;54.72;;;;;;;2.56;100.00;97121.28;1035600;28;20285;-64
2021/12/15 01:42:19;;;;;;;376.50;52.65;;;;;;;2.52;100.00;97112.25;1028603;28;20273;-66
2021/12/15 01:42:50;;;;;;;339.90;52.05;;;;;;;2.58;100.00;97117.53;1036441;28;20049;-65
2021/12/15 01:43:33;;;;;;;388.95;56.65;;;;;;;2.55;100.00;97117.09;1036467;28;20042;-65
2021/12/15 01:47:07;;;;;;;436.67;55.45;;;;;;;2.53;100.00;97119.84;1024197;28;20254;-63
2021/12/15 01:47:37;;;;;;;423.83;56.70;;;;;;;2.44;100.00;97115.72;1018664;28;20146;-66
2021/12/15 01:48:11;;;;;;;440.70;57.80;;;;;;;2.44;100.00;97113.13;1027597;28;20042;-67
2021/12/15 01:48:42;;;;;;;469.27;62.38;;;;;;;2.50;100.00;97111.63;1026121;28;20150;-66
2021/12/15 01:49:19;;;;;;;484.60;61.63;;;;;;;2.33;100.00;97083.28;1025106;28;20321;-66
2021/12/15 01:49:51;;;;;;;353.50;50.75;;;;;;;2.34;100.00;97099.63;1017590;29;20023;-65
2021/12/15 01:50:22;;;;;;;437.05;55.05;;;;;;;2.41;100.00;97104.91;1017301;29;20979;-66
2021/12/15 01:50:53;;;;;;;456.38;56.65;;;;;;;2.44;100.00;97114.91;1024516;28;20266;-64
2021/12/15 01:51:23;;;;;;;464.23;61.53;;;;;;;2.44;100.00;97113.13;1025732;28;20775;-64
2021/12/15 01:51:58;;;;;;;402.88;53.28;;;;;;;2.39;100.00;97112.88;1021805;29;20038;-68
2021/12/15 01:52:31;;;;;;;483.48;62.42;;;;;;;2.41;100.00;97123.84;1025930;28;20297;-65
2021/12/15 01:53:01;;;;;;;431.35;57.70;;;;;;;2.41;100.00;97113.47;1029986;28;20258;-66
2021/12/15 01:53:32;;;;;;;472.50;61.90;;;;;;;2.35;100.00;97107.22;1030262;28;20262;-67
2021/12/15 01:54:02;;;;;;;471.95;59.85;;;;;;;2.43;100.00;97118.50;1030734;28;20026;-67
2021/12/15 01:54:34;;;;;;;433.40;56.10;;;;;;;2.39;100.00;97110.28;1026886;28;20018;-67
2021/12/15 01:55:08;;;;;;;497.38;64.93;;;;;;;2.40;100.00;97113.66;1025271;28;20026;-67
2021/12/15 01:55:41;;;;;;;414.10;56.13;;;;;;;2.42;100.00;97122.88;1023764;28;20259;-65
2021/12/15 01:56:12;;;;;;;407.75;56.20;;;;;;;2.34;100.00;97108.19;1028203;28;20286;-63
2021/12/15 01:56:42;;;;;;;413.10;56.35;;;;;;;2.41;100.00;97116.06;1031619;28;20741;-67
2021/12/15 01:57:13;;;;;;;432.10;56.28;;;;;;;2.43;100.00;97116.69;1032817;28;20026;-67
2021/12/15 01:57:44;;;;;;;363.67;50.50;;;;;;;2.40;100.00;97111.88;1030995;28;20100;-67
2021/12/15 01:58:14;;;;;;;436.38;59.20;;;;;;;2.40;100.00;97109.28;1026971;28;20095;-66
2021/12/15 01:58:45;;;;;;;436.77;59.40;;;;;;;2.40;100.00;97119.66;1023094;28;20437;-67
2021/12/15 01:59:16;;;;;;;408.08;53.97;;;;;;;2.42;100.00;97112.50;1028723;28;20014;-67
2021/12/15 01:59:47;;;;;;;486.40;64.30;;;;;;;2.43;100.00;97113.31;1030859;28;20033;-66
2021/12/15 02:00:24;;;;;;;321.23;48.28;;;;;;;2.39;100.00;97115.44;1027503;28;20266;-64
2021/12/15 02:01:01;;;;;;;424.92;58.10;;;;;;;2.40;100.00;97108.47;1031478;28;20114;-68
2021/12/15 02:01:32;;;;;;;406.08;55.15;;;;;;;2.42;100.00;97111.72;1031003;28;20637;-65
2021/12/15 02:02:02;;;;;;;403.00;56.40;;;;;;;2.42;100.00;97112.50;1029568;28;20285;-67
2021/12/15 02:02:33;;;;;;;438.75;58.42;;;;;;;2.41;100.00;97108.28;1028678;28;20041;-67
2021/12/15 02:03:03;;;;;;;351.55;49.95;;;;;;;2.38;100.00;97100.88;1031251;28;20049;-67
2021/12/15 02:03:34;;;;;;;375.50;50.00;;;;;;;2.42;100.00;97111.72;1019246;29;20051;-67
2021/12/15 02:04:05;;;;;;;366.38;51.67;;;;;;;2.43;100.00;97110.72;1024909;28;20600;-67
2021/12/15 02:04:35;;;;;;;367.05;52.10;;;;;;;2.41;100.00;97113.47;1022662;29;20505;-67
2021/12/15 02:05:06;;;;;;;427.70;54.63;;;;;;;2.39;100.00;97112.88;1023733;28;20023;-67
2021/12/15 02:05:37;;;;;;;376.65;54.08;;;;;;;2.41;100.00;97116.06;1026779;28;20022;-64
2021/12/15 02:06:08;;;;;;;443.48;61.15;;;;;;;2.40;100.00;97117.06;1027301;28;20292;-67
2021/12/15 02:06:42;;;;;;;397.95;54.40;;;;;;;2.41;100.00;97120.44;1023417;29;20023;-67
2021/12/15 02:07:16;;;;;;;281.02;43.95;;;;;;;2.40;100.00;97119.66;1023152;29;20259;-67
2021/12/15 02:07:47;;;;;;;403.45;55.58;;;;;;;2.42;100.00;97120.28;1024250;28;20278;-64
2021/12/15 02:08:18;;;;;;;470.73;61.85;;;;;;;2.41;100.00;97110.09;1029278;28;20625;-67
2021/12/15 02:08:49;;;;;;;492.05;64.03;;;;;;;2.40;100.00;97114.47;1031250;28;20308;-67
2021/12/15 02:09:46;;;;;;;515.88;68.40;;;;;;;2.43;100.00;97114.13;1028895;28;20031;-68
2021/12/15 02:10:15;;;;;;;578.47;67.43;;;;;;;2.44;100.00;97110.53;1025800;28;20564;-68
2021/12/15 02:10:45;;;;;;;505.77;59.95;;;;;;;2.42;100.00;97112.50;1027852;28;20274;-67
2021/12/15 02:11:16;;;;;;;505.13;62.63;;;;;;;2.39;100.00;97112.06;1027644;28;20263;-67
2021/12/15 02:11:47;;;;;;;498.35;63.25;;;;;;;2.37;100.00;97109.63;1028731;28;20018;-67
2021/12/15 02:12:21;;;;;;;530.50;66.97;;;;;;;2.36;100.00;97113.22;1027341;28;20258;-67
2021/12/15 02:12:52;;;;;;;527.50;64.20;;;;;;;2.36;100.00;97113.22;1035274;28;20475;-66
2021/12/15 02:13:22;;;;;;;557.45;70.10;;;;;;;2.34;100.00;97109.97;1035166;28;20312;-67
2021/12/15 02:13:53;;;;;;;534.95;65.63;;;;;;;2.31;100.00;97116.34;1034086;28;20140;-65
2021/12/15 02:14:23;;;;;;;570.40;67.68;;;;;;;2.32;100.00;97107.59;1033652;28;20034;-68
2021/12/15 02:14:54;;;;;;;673.38;71.78;;;;;;;2.35;100.00;97103.84;1028153;28;20077;-67
2021/12/15 02:15:30;;;;;;;564.15;66.55;;;;;;;2.34;100.00;97107.41;1022850;28;20035;-67
2021/12/15 02:16:01;;;;;;;673.95;72.88;;;;;;;2.35;100.00;97111.63;1027132;28;20358;-67
2021/12/15 02:16:32;;;;;;;505.95;63.95;;;;;;;2.32;100.00;97101.59;1026953;28;20293;-64
2021/12/15 02:17:03;;;;;;;550.78;65.03;;;;;;;2.35;100.00;97107.22;1031196;28;21094;-67
2021/12/15 02:17:33;;;;;;;499.05;60.83;;;;;;;2.34;100.00;97109.97;1031933;28;20039;-67
2021/12/15 02:18:09;;;;;;;506.63;64.07;;;;;;;2.33;100.00;97109.19;1034598;28;20029;-67
2021/12/15 02:18:45;;;;;;;618.97;68.07;;;;;;;2.34;100.00;97100.44;1033643;28;20088;-67
2021/12/15 02:19:15;;;;;;;634.33;70.40;;;;;;;2.31;100.00;97099.97;1030971;28;20304;-67
2021/12/15 02:19:46;;;;;;;469.58;56.53;;;;;;;2.36;100.00;97105.44;1031137;28;20270;-67
2021/12/15 02:20:18;;;;;;;488.08;60.08;;;;;;;2.40;100.00;97105.91;1018109;29;20031;-67
2021/12/15 02:20:56;;;;;;;577.63;67.05;;;;;;;2.35;100.00;97103.84;1025672;28;20031;-66
2021/12/15 02:21:27;;;;;;;564.35;61.45;;;;;;;2.36;100.00;97105.44;1025259;28;20266;-68
2021/12/15 02:21:59;;;;;;;543.13;61.75;;;;;;;2.32;100.00;97115.34;1026741;28;20306;-67
2021/12/15 02:22:30;;;;;;;582.08;62.28;;;;;;;2.32;100.00;97106.78;1027265;28;20381;-67
2021/12/15 02:23:01;;;;;;;565.10;63.63;;;;;;;2.31;100.00;97100.81;1030040;28;20341;-68
2021/12/15 02:23:38;;;;;;;578.00;63.88;;;;;;;2.27;100.00;97101.31;1022724;29;20325;-64
2021/12/15 02:24:08;;;;;;;609.75;65.10;;;;;;;2.34;100.00;97108.19;1023228;29;20113;-67
2021/12/15 02:24:40;;;;;;;509.73;58.00;;;;;;;2.34;100.00;97109.97;1022482;28;20354;-67
2021/12/15 02:25:13;;;;;;;580.22;64.90;;;;;;;2.35;100.00;97106.44;1021613;28;20066;-67
2021/12/15 02:25:43;;;;;;;559.10;64.18;;;;;;;2.31;100.00;97105.97;1029289;28;20640;-67
2021/12/15 02:26:17;;;;;;;549.70;63.50;;;;;;;2.30;100.00;97103.56;1027362;28;20302;-66
2021/12/15 02:26:51;;;;;;;485.25;57.20;;;;;;;2.31;100.00;97105.16;1026855;28;20030;-66
2021/12/15 02:27:22;;;;;;;501.48;58.28;;;;;;;2.31;100.00;97097.38;1027110;28;20262;-67
2021/12/15 02:27:52;;;;;;;443.52;53.97;;;;;;;2.30;100.00;97103.56;1031283;28;20297;-64
2021/12/15 02:28:23;;;;;;;488.30;56.08;;;;;;;2.27;100.00;97106.50;1034911;28;20037;-66
2021/12/15 02:28:57;;;;;;;522.22;60.22;;;;;;;2.31;100.00;97100.81;1023069;29;20027;-67
2021/12/15 02:29:35;;;;;;;503.50;59.35;;;;;;;2.29;100.00;97097.56;1023315;29;20111;-67
2021/12/15 02:30:20;;;;;;;577.22;63.50;;;;;;;2.27;100.00;97096.94;1019197;29;20805;-67
2021/12/15 02:31:00;;;;;;;532.55;59.22;;;;;;;2.30;100.00;97098.38;1029837;28;20269;-65
2021/12/15 02:32:32;;;;;;;537.05;59.65;;;;;;;2.27;100.00;97096.13;1035251;28;20038;-67
2021/12/15 02:34:03;;;;;;;509.58;57.63;;;;;;;2.30;100.00;97103.56;1039416;28;20260;-67
2021/12/15 02:37:22;;;;;;;440.35;50.55;;;;;;;2.23;100.00;97087.13;1034095;28;21208;-67
2021/12/15 02:37:52;;;;;;;485.55;49.13;;;;;;;2.24;100.00;97088.72;1040901;28;20272;-65
2021/12/15 02:38:32;;;;;;;467.55;51.95;;;;;;;2.27;100.00;97101.31;1034919;28;20299;-67
2021/12/15 02:39:06;;;;;;;514.95;51.28;;;;;;;2.26;100.00;97102.31;1031219;28;20709;-67
2021/12/15 02:39:39;;;;;;;477.83;49.72;;;;;;;2.24;100.00;97096.47;1017391;29;20267;-66
2021/12/15 02:40:16;;;;;;;542.50;54.38;;;;;;;2.23;100.00;97100.06;1025081;28;20271;-68
2021/12/15 02:40:46;;;;;;;473.33;52.25;;;;;;;2.23;100.00;97092.28;1028932;28;20276;-64
2021/12/15 02:41:20;;;;;;;584.80;58.55;;;;;;;2.24;100.00;97099.06;1029441;28;20273;-66
2021/12/15 02:41:51;;;;;;;518.28;55.90;;;;;;;2.23;100.00;97093.09;1029173;28;20052;-67